Time;durP1;ratioP1;P1;durP2;ratioP2;P2;SDS_P1;SDS_P2;PMS_P1;PMS_P2;Temp;Humidity;BMP_temperature;BMP_pressure;BME280_temperature;BME280_humidity;BME280_pressure;Samples;Min_cycle;Max_cycle;Signal;HPM_P1;HPM_P2
2021/09/16 00:01:30;;;;;;;1.05;1.02;;;;;;;18.73;87.48;96573.94;5020801;28;20183;-61
2021/09/16 00:03:56;;;;;;;1.33;1.00;;;;;;;18.65;87.58;96575.38;5026490;28;20178;-63
2021/09/16 00:06:21;;;;;;;1.00;1.00;;;;;;;18.69;87.69;96576.38;5025147;28;20195;-62
2021/09/16 00:08:46;;;;;;;2.38;1.13;;;;;;;18.57;88.19;96577.84;5004333;28;20265;-62
2021/09/16 00:11:12;;;;;;;1.15;1.15;;;;;;;18.57;87.67;96575.19;5025462;28;20183;-61
2021/09/16 00:13:38;;;;;;;2.35;1.35;;;;;;;18.74;86.99;96575.53;5025201;28;20190;-61
2021/09/16 00:16:03;;;;;;;1.58;1.13;;;;;;;18.86;85.90;96577.78;5017032;28;20191;-61
2021/09/16 00:18:29;;;;;;;1.20;1.08;;;;;;;18.73;86.63;96584.56;5024570;28;20182;-62
2021/09/16 00:20:54;;;;;;;1.10;1.10;;;;;;;18.62;87.05;96591.06;5025031;28;20191;-61
2021/09/16 00:23:20;;;;;;;1.10;1.10;;;;;;;18.90;85.76;96584.91;5021790;28;20191;-61
2021/09/16 00:25:45;;;;;;;1.83;1.02;;;;;;;18.94;85.27;96590.44;5029997;28;20233;-62
2021/09/16 00:28:11;;;;;;;1.15;1.08;;;;;;;18.91;85.66;96596.31;5021724;28;20186;-62
2021/09/16 00:30:36;;;;;;;1.08;1.00;;;;;;;18.91;85.42;96583.81;5020749;28;20545;-61
2021/09/16 00:33:02;;;;;;;1.20;0.90;;;;;;;18.81;86.41;96591.13;5024709;28;20273;-62
2021/09/16 00:35:27;;;;;;;1.02;1.02;;;;;;;18.84;85.54;96586.03;5024839;28;20214;-61
2021/09/16 00:37:53;;;;;;;0.82;0.82;;;;;;;18.79;85.86;96587.94;5017061;28;20274;-63
2021/09/16 00:40:18;;;;;;;1.05;1.00;;;;;;;18.80;85.75;96585.03;5028269;28;20286;-61
2021/09/16 00:42:44;;;;;;;1.15;1.05;;;;;;;18.72;86.11;96583.00;5021060;28;20184;-61
2021/09/16 00:45:11;;;;;;;1.00;0.90;;;;;;;18.67;86.44;96583.03;5024942;28;20216;-61
2021/09/16 00:47:43;;;;;;;1.38;1.02;;;;;;;18.72;86.03;96582.22;5018196;28;20182;-62
2021/09/16 00:50:09;;;;;;;1.30;1.20;;;;;;;18.75;86.32;96585.06;5029141;28;20186;-62
2021/09/16 00:52:38;;;;;;;0.90;0.90;;;;;;;18.65;87.34;96587.84;5003603;28;20561;-61
2021/09/16 00:55:05;;;;;;;1.75;1.35;;;;;;;18.74;87.26;96591.47;5022200;28;20233;-61
2021/09/16 00:57:32;;;;;;;3.70;1.52;;;;;;;18.53;88.64;96598.84;5027403;28;20213;-61
2021/09/16 01:00:00;;;;;;;1.00;1.00;;;;;;;18.52;89.58;96599.09;5022179;28;20274;-61
2021/09/16 01:02:26;;;;;;;1.02;1.00;;;;;;;18.56;88.88;96595.63;5018631;28;20265;-61
2021/09/16 01:04:52;;;;;;;1.10;1.00;;;;;;;18.62;88.22;96597.16;5024187;28;20199;-61
2021/09/16 01:07:18;;;;;;;0.80;0.80;;;;;;;18.68;88.05;96597.91;5025577;28;20217;-61
2021/09/16 01:09:43;;;;;;;1.40;1.00;;;;;;;18.53;88.81;96598.84;5018996;28;20187;-61
2021/09/16 01:12:09;;;;;;;0.80;0.80;;;;;;;18.52;88.66;96597.25;5023018;28;20194;-61
2021/09/16 01:14:35;;;;;;;0.90;0.90;;;;;;;18.73;87.33;96594.38;5025623;28;20390;-61
2021/09/16 01:17:00;;;;;;;0.88;0.88;;;;;;;18.58;87.53;96596.16;5020593;28;20320;-62
2021/09/16 01:19:26;;;;;;;0.80;0.80;;;;;;;18.81;86.37;96591.91;5020778;28;20543;-61
2021/09/16 01:21:52;;;;;;;0.93;0.93;;;;;;;18.98;85.52;96588.78;5028391;28;20214;-61
2021/09/16 01:24:17;;;;;;;2.63;1.10;;;;;;;18.94;85.53;96590.44;5017650;28;20190;-61
2021/09/16 01:26:44;;;;;;;1.13;0.90;;;;;;;18.90;85.75;96594.72;5024550;28;20194;-61
2021/09/16 01:29:11;;;;;;;1.02;0.93;;;;;;;18.93;85.64;96587.00;5006849;28;20236;-61
2021/09/16 01:31:40;;;;;;;2.47;1.08;;;;;;;18.95;85.06;96587.47;5021376;28;20182;-62
2021/09/16 01:34:08;;;;;;;1.50;0.90;;;;;;;18.92;85.32;96593.38;5028101;28;20244;-61
2021/09/16 01:36:35;;;;;;;2.50;1.00;;;;;;;18.92;85.13;96584.63;5029878;28;20285;-61
2021/09/16 01:39:04;;;;;;;1.42;0.80;;;;;;;19.06;84.29;96594.25;5027282;28;20635;-62
2021/09/16 01:41:30;;;;;;;1.10;1.00;;;;;;;18.89;87.07;96590.50;5009466;28;20275;-62
2021/09/16 01:43:55;;;;;;;1.02;1.02;;;;;;;18.67;90.81;96583.81;5026230;28;20636;-62
2021/09/16 01:46:21;;;;;;;1.38;1.27;;;;;;;18.53;92.54;96582.91;5021175;28;20219;-62
2021/09/16 01:48:46;;;;;;;1.10;1.00;;;;;;;18.45;93.93;96580.84;5027977;28;20183;-62
2021/09/16 01:51:12;;;;;;;1.00;1.00;;;;;;;18.36;95.20;96579.91;5027915;28;20199;-62
2021/09/16 01:53:37;;;;;;;1.00;1.00;;;;;;;18.40;94.29;96577.47;5035948;28;20198;-63
2021/09/16 01:56:03;;;;;;;0.95;0.95;;;;;;;18.37;93.53;96575.38;5019712;28;20203;-62
2021/09/16 01:58:28;;;;;;;1.00;1.00;;;;;;;18.27;94.18;96579.72;5030375;28;20229;-61
2021/09/16 02:00:54;;;;;;;1.25;1.00;;;;;;;18.11;95.11;96569.53;5025980;28;20531;-61
2021/09/16 02:03:19;;;;;;;3.03;1.05;;;;;;;18.07;96.47;96571.94;5024172;28;20211;-61
2021/09/16 02:05:44;;;;;;;1.33;0.90;;;;;;;18.08;96.47;96573.53;5024339;28;20596;-61
2021/09/16 02:08:10;;;;;;;1.25;1.15;;;;;;;18.07;96.62;96579.91;5027711;28;20217;-60
2021/09/16 02:10:35;;;;;;;1.00;1.00;;;;;;;18.00;97.15;96571.47;5027018;28;20195;-60
2021/09/16 02:13:00;;;;;;;1.00;1.00;;;;;;;18.07;96.92;96571.16;5019770;28;20614;-60
2021/09/16 02:15:26;;;;;;;0.98;0.98;;;;;;;18.16;96.27;96572.94;5030277;28;20205;-60
2021/09/16 02:17:51;;;;;;;1.00;1.00;;;;;;;18.25;96.17;96573.91;5025252;28;20221;-61
2021/09/16 02:20:17;;;;;;;1.15;1.05;;;;;;;18.36;95.45;96574.59;5035029;28;20191;-61
2021/09/16 02:22:42;;;;;;;1.35;1.30;;;;;;;18.34;95.46;96574.06;5032457;28;20268;-61
2021/09/16 02:25:08;;;;;;;1.33;1.20;;;;;;;18.34;95.90;96568.75;5030510;28;20178;-61
2021/09/16 02:27:34;;;;;;;1.52;1.20;;;;;;;18.36;95.88;96563.97;5030863;28;20187;-62
2021/09/16 02:29:59;;;;;;;1.83;1.10;;;;;;;18.36;95.49;96561.31;5029284;28;20280;-62
2021/09/16 02:32:25;;;;;;;1.00;1.00;;;;;;;18.41;94.17;96558.59;5026850;28;20188;-61
2021/09/16 02:34:50;;;;;;;1.35;1.25;;;;;;;18.45;93.15;96554.31;5024166;28;20193;-62
2021/09/16 02:37:15;;;;;;;1.77;1.10;;;;;;;18.43;93.19;96561.00;5023015;28;20218;-61
2021/09/16 02:39:41;;;;;;;2.15;1.30;;;;;;;18.33;93.51;96545.97;5031624;28;20542;-62
2021/09/16 02:42:06;;;;;;;3.30;1.47;;;;;;;18.17;94.76;96547.16;5000966;28;20284;-61
2021/09/16 02:44:32;;;;;;;1.38;1.23;;;;;;;18.23;94.30;96551.34;5020760;28;20332;-62
2021/09/16 02:46:57;;;;;;;1.30;1.20;;;;;;;18.26;93.82;96548.16;5024998;28;20202;-61
2021/09/16 02:49:23;;;;;;;1.48;1.38;;;;;;;18.28;93.27;96551.31;5027696;28;20535;-64
2021/09/16 02:51:48;;;;;;;1.00;1.00;;;;;;;18.42;92.14;96552.22;5027235;28;20221;-62
2021/09/16 02:54:13;;;;;;;1.17;1.08;;;;;;;18.26;93.32;96542.84;5027687;28;20175;-67
2021/09/16 02:56:40;;;;;;;1.85;1.50;;;;;;;18.26;93.16;96548.94;5026837;28;20206;-61
2021/09/16 02:59:06;;;;;;;1.67;1.42;;;;;;;18.25;93.12;96552.66;5026848;28;20190;-61
2021/09/16 03:01:31;;;;;;;1.23;1.13;;;;;;;18.22;94.10;96549.78;5026805;28;20514;-61
2021/09/16 03:03:56;;;;;;;1.60;1.50;;;;;;;18.37;92.80;96546.19;5025143;28;20182;-61
2021/09/16 03:06:22;;;;;;;1.55;1.45;;;;;;;18.32;92.95;96544.38;5020276;28;20699;-61
2021/09/16 03:08:48;;;;;;;1.40;1.30;;;;;;;18.42;92.17;96540.81;5020097;28;20249;-61
2021/09/16 03:11:14;;;;;;;1.40;1.30;;;;;;;18.33;92.86;96537.22;5022843;28;20179;-61
2021/09/16 03:13:40;;;;;;;1.38;1.13;;;;;;;18.27;93.30;96536.47;5023217;28;20374;-61
2021/09/16 03:16:05;;;;;;;1.30;1.30;;;;;;;18.33;93.37;96539.88;5031162;28;20289;-61
2021/09/16 03:18:31;;;;;;;1.10;1.10;;;;;;;18.51;91.76;96534.59;5020921;28;20185;-61
2021/09/16 03:20:56;;;;;;;1.30;1.20;;;;;;;18.36;92.60;96548.03;5024286;28;20739;-61
2021/09/16 03:23:21;;;;;;;1.42;1.00;;;;;;;18.49;91.96;96542.06;5026376;28;20187;-62
2021/09/16 03:25:47;;;;;;;2.00;1.17;;;;;;;18.49;91.53;96536.78;5018010;28;20198;-62
2021/09/16 03:28:12;;;;;;;1.50;1.40;;;;;;;18.35;93.22;96535.06;5018852;28;20635;-61
2021/09/16 03:30:37;;;;;;;2.00;1.17;;;;;;;18.42;93.48;96522.25;5030545;28;20266;-61
2021/09/16 03:33:03;;;;;;;1.40;1.30;;;;;;;18.40;93.72;96533.13;5025062;28;20198;-62
2021/09/16 03:35:28;;;;;;;1.53;1.43;;;;;;;18.46;93.18;96536.53;5002825;28;20241;-61
2021/09/16 03:37:54;;;;;;;1.10;1.10;;;;;;;18.39;93.73;96528.13;5030878;28;20237;-62
2021/09/16 03:40:19;;;;;;;1.48;1.30;;;;;;;18.39;93.83;96534.19;5022799;28;20237;-62
2021/09/16 03:42:45;;;;;;;1.10;1.10;;;;;;;18.59;92.07;96533.22;5021772;28;20175;-62
2021/09/16 03:45:12;;;;;;;2.53;1.20;;;;;;;18.55;92.07;96534.88;5026072;28;20253;-61
2021/09/16 03:47:37;;;;;;;1.23;1.13;;;;;;;18.48;92.00;96543.16;5025418;28;20182;-62
2021/09/16 03:50:03;;;;;;;1.20;1.10;;;;;;;18.50;91.98;96546.28;5017354;28;20286;-63
2021/09/16 03:52:29;;;;;;;1.60;1.50;;;;;;;18.50;92.64;96550.84;5027122;28;20199;-61
2021/09/16 03:54:54;;;;;;;1.48;1.30;;;;;;;18.22;95.89;96550.56;5007916;28;20194;-61
2021/09/16 03:57:20;;;;;;;1.20;1.10;;;;;;;18.15;97.29;96552.78;5021893;28;20215;-61
2021/09/16 03:59:45;;;;;;;1.37;1.23;;;;;;;18.08;98.41;96551.50;5014759;28;20656;-61
2021/09/16 04:02:10;;;;;;;1.40;1.40;;;;;;;18.04;98.42;96543.34;5017331;28;20180;-62
2021/09/16 04:04:36;;;;;;;1.60;1.50;;;;;;;18.03;98.94;96539.09;5030891;28;20179;-61
2021/09/16 04:07:02;;;;;;;1.67;1.58;;;;;;;17.98;98.96;96536.50;5031461;28;20190;-61
2021/09/16 04:09:27;;;;;;;1.60;1.50;;;;;;;17.95;99.07;96541.53;5030970;28;20194;-62
2021/09/16 04:11:52;;;;;;;1.75;1.58;;;;;;;17.86;99.91;96536.06;5029847;28;20627;-61
2021/09/16 04:14:18;;;;;;;1.67;1.67;;;;;;;17.92;99.63;96548.22;5009632;28;20183;-62
2021/09/16 04:16:43;;;;;;;1.60;1.42;;;;;;;17.89;100.00;96540.03;5004240;28;20298;-62
2021/09/16 04:19:09;;;;;;;1.87;1.40;;;;;;;17.83;100.00;96534.75;5007610;28;20529;-61
2021/09/16 04:21:34;;;;;;;1.60;1.50;;;;;;;17.79;100.00;96536.38;5019078;28;20199;-61
2021/09/16 04:24:00;;;;;;;1.60;1.50;;;;;;;17.78;100.00;96534.78;5029759;28;20185;-61
2021/09/16 04:26:25;;;;;;;3.73;1.53;;;;;;;17.77;100.00;96527.94;5021827;28;20187;-61
2021/09/16 04:28:50;;;;;;;1.88;1.75;;;;;;;17.80;100.00;96537.19;5022638;28;20183;-62
2021/09/16 04:31:16;;;;;;;1.60;1.50;;;;;;;17.78;100.00;96537.44;5006935;28;20187;-61
2021/09/16 04:33:41;;;;;;;2.25;1.70;;;;;;;17.76;100.00;96544.09;5017374;28;20266;-61
2021/09/16 04:36:07;;;;;;;1.60;1.50;;;;;;;18.04;99.73;96553.16;5011908;28;20227;-61
2021/09/16 04:38:32;;;;;;;1.60;1.50;;;;;;;17.80;100.00;96550.44;5019337;28;20273;-61
2021/09/16 04:40:57;;;;;;;2.70;1.70;;;;;;;17.96;100.00;96553.75;5024402;28;20235;-61
2021/09/16 04:43:23;;;;;;;2.17;1.60;;;;;;;18.00;100.00;96554.78;5020199;28;20239;-61
2021/09/16 04:45:48;;;;;;;2.75;1.90;;;;;;;18.03;99.87;96554.22;5029456;28;20654;-62
2021/09/16 04:48:14;;;;;;;2.35;2.15;;;;;;;17.91;100.00;96556.44;5017487;28;20179;-61
2021/09/16 04:50:39;;;;;;;3.08;2.00;;;;;;;17.84;100.00;96556.75;5032264;28;20236;-61
2021/09/16 04:53:05;;;;;;;1.92;1.67;;;;;;;17.92;100.00;96550.06;5021670;28;20186;-62
2021/09/16 04:55:31;;;;;;;2.27;2.07;;;;;;;18.12;99.73;96553.31;5027498;28;20242;-61
2021/09/16 04:57:56;;;;;;;2.77;1.63;;;;;;;17.95;100.00;96552.94;5016489;28;20659;-61
2021/09/16 05:00:22;;;;;;;1.90;1.80;;;;;;;17.84;100.00;96552.25;5031943;28;20708;-62
2021/09/16 05:02:47;;;;;;;1.75;1.65;;;;;;;17.84;100.00;96559.41;5022539;28;20747;-62
2021/09/16 05:05:13;;;;;;;2.25;2.10;;;;;;;17.85;100.00;96553.81;5021473;28;20179;-63
2021/09/16 05:07:38;;;;;;;2.50;2.30;;;;;;;17.91;100.00;96556.44;5002987;28;20183;-62
2021/09/16 05:10:04;;;;;;;3.80;2.25;;;;;;;17.95;100.00;96560.09;5003356;28;20195;-62
2021/09/16 05:12:29;;;;;;;2.45;2.25;;;;;;;17.97;100.00;96553.47;5021150;28;20193;-62
2021/09/16 05:14:55;;;;;;;1.90;1.80;;;;;;;18.06;100.00;96556.28;5024594;28;20201;-61
2021/09/16 05:17:21;;;;;;;2.57;2.10;;;;;;;18.02;100.00;96553.41;5021050;28;20229;-61
2021/09/16 05:19:46;;;;;;;1.98;1.88;;;;;;;17.90;100.00;96554.84;5022415;28;20198;-61
2021/09/16 05:22:11;;;;;;;2.42;2.25;;;;;;;18.01;100.00;96559.00;5020245;28;20186;-61
2021/09/16 05:24:37;;;;;;;5.18;2.42;;;;;;;17.97;100.00;96556.13;5021355;28;20189;-62
2021/09/16 05:27:02;;;;;;;3.88;3.47;;;;;;;17.92;100.00;96560.69;5022986;28;20225;-62
2021/09/16 05:29:28;;;;;;;3.80;3.50;;;;;;;18.03;100.00;96562.16;5021996;28;20237;-62
2021/09/16 05:31:53;;;;;;;3.53;3.22;;;;;;;17.78;100.00;96571.13;5022986;28;20179;-62
2021/09/16 05:34:19;;;;;;;2.80;2.60;;;;;;;17.82;100.00;96567.66;5020484;28;20187;-62
2021/09/16 05:36:44;;;;;;;5.67;2.40;;;;;;;17.83;100.00;96561.25;5027686;28;20538;-62
2021/09/16 05:39:10;;;;;;;1.90;1.80;;;;;;;17.81;100.00;96563.41;5027805;28;20179;-63
2021/09/16 05:41:36;;;;;;;2.60;2.40;;;;;;;17.86;100.00;96559.94;5026843;28;20617;-62
2021/09/16 05:44:02;;;;;;;2.10;2.00;;;;;;;17.76;100.00;96562.66;5024363;28;20174;-62
2021/09/16 05:46:27;;;;;;;3.43;2.27;;;;;;;17.82;100.00;96565.00;5022215;28;20933;-62
2021/09/16 05:48:53;;;;;;;5.37;2.73;;;;;;;17.72;100.00;96567.72;5020545;28;20207;-62
2021/09/16 05:51:18;;;;;;;4.20;2.30;;;;;;;17.76;100.00;96563.47;5005342;28;20192;-62
2021/09/16 05:53:44;;;;;;;3.00;2.58;;;;;;;17.83;100.00;96563.16;5002537;28;20232;-66
2021/09/16 05:56:09;;;;;;;3.22;2.72;;;;;;;17.79;100.00;96565.53;5020066;28;20199;-62
2021/09/16 05:58:34;;;;;;;2.60;2.40;;;;;;;17.90;100.00;96571.56;5017802;28;20193;-62
2021/09/16 06:01:00;;;;;;;2.72;2.53;;;;;;;17.91;100.00;96567.84;5016897;28;20694;-62
2021/09/16 06:03:25;;;;;;;3.10;2.88;;;;;;;18.01;100.00;96565.09;5020708;28;20195;-61
2021/09/16 06:05:51;;;;;;;2.72;2.25;;;;;;;17.79;100.00;96575.34;5021322;28;20639;-62
2021/09/16 06:08:16;;;;;;;2.80;2.60;;;;;;;17.76;100.00;96575.91;5019940;28;20660;-62
2021/09/16 06:10:41;;;;;;;2.80;2.60;;;;;;;17.93;100.00;96576.31;5014200;28;20306;-61
2021/09/16 06:13:07;;;;;;;4.15;2.65;;;;;;;17.97;100.00;96580.00;4998507;28;20186;-62
2021/09/16 06:15:32;;;;;;;3.97;2.97;;;;;;;17.99;100.00;96583.16;5029953;28;20199;-62
2021/09/16 06:17:58;;;;;;;4.10;2.77;;;;;;;18.12;100.00;96579.84;5015496;28;20655;-62
2021/09/16 06:20:23;;;;;;;3.10;2.70;;;;;;;18.03;100.00;96578.88;5033696;28;20278;-63
2021/09/16 06:22:49;;;;;;;3.40;2.60;;;;;;;18.11;100.00;96588.09;5019853;28;20187;-67
2021/09/16 06:25:15;;;;;;;3.17;2.87;;;;;;;17.97;100.00;96579.19;5031448;28;20629;-62
2021/09/16 06:27:45;;;;;;;3.10;2.90;;;;;;;18.13;100.00;96578.00;5023577;28;20222;-62
2021/09/16 06:30:11;;;;;;;2.38;2.28;;;;;;;18.26;100.00;96578.13;5024349;28;20215;-62
2021/09/16 06:32:37;;;;;;;3.85;3.45;;;;;;;18.34;100.00;96582.03;5027153;28;20195;-61
2021/09/16 06:35:05;;;;;;;3.25;2.97;;;;;;;18.40;100.00;96588.88;5019490;28;20240;-61
2021/09/16 06:37:30;;;;;;;3.10;2.90;;;;;;;18.44;100.00;96586.47;5029608;28;20640;-61
2021/09/16 06:39:56;;;;;;;5.47;2.92;;;;;;;18.49;100.00;96589.06;5024559;28;20182;-61
2021/09/16 06:42:21;;;;;;;3.33;3.03;;;;;;;18.53;100.00;96592.72;5023927;28;20238;-61
2021/09/16 06:44:47;;;;;;;2.42;2.33;;;;;;;18.49;100.00;96594.38;5019533;28;20270;-63
2021/09/16 06:47:13;;;;;;;3.25;2.80;;;;;;;18.44;100.00;96591.78;5033198;28;20593;-61
2021/09/16 06:49:45;;;;;;;6.15;2.45;;;;;;;18.48;100.00;96600.75;5033362;28;20191;-64
2021/09/16 06:52:10;;;;;;;2.60;2.40;;;;;;;18.58;100.00;96593.50;5032114;28;20189;-63
2021/09/16 06:54:36;;;;;;;3.58;2.63;;;;;;;18.58;100.00;96601.47;5020986;28;20278;-62
2021/09/16 06:57:01;;;;;;;2.90;2.70;;;;;;;18.67;100.00;96598.97;5011802;28;20214;-60
2021/09/16 06:59:27;;;;;;;3.08;2.50;;;;;;;18.75;100.00;96603.66;5021025;28;20195;-60
2021/09/16 07:01:52;;;;;;;4.15;2.78;;;;;;;18.78;100.00;96599.66;5021188;28;20630;-61
2021/09/16 07:04:17;;;;;;;2.83;2.63;;;;;;;18.74;100.00;96612.69;5024170;28;20178;-61
2021/09/16 07:06:43;;;;;;;4.30;2.03;;;;;;;18.72;100.00;96609.56;5021831;28;20198;-61
2021/09/16 07:09:10;;;;;;;3.22;2.40;;;;;;;18.72;100.00;96611.41;5020852;28;20262;-61
2021/09/16 07:11:36;;;;;;;2.30;2.20;;;;;;;18.69;100.00;96610.09;5022305;28;20643;-64
2021/09/16 07:14:01;;;;;;;2.30;2.10;;;;;;;18.87;100.00;96606.72;5027589;28;20261;-61
2021/09/16 07:16:26;;;;;;;2.63;2.42;;;;;;;18.80;100.00;96613.44;5019395;28;20237;-61
2021/09/16 07:18:52;;;;;;;3.05;2.30;;;;;;;18.89;100.00;96611.75;5025977;28;20273;-61
2021/09/16 07:21:17;;;;;;;3.50;2.35;;;;;;;18.99;100.00;96615.09;5028503;28;20186;-61
2021/09/16 07:23:43;;;;;;;4.53;3.58;;;;;;;19.25;98.82;96615.53;5003537;28;20546;-65
2021/09/16 07:26:08;;;;;;;6.80;4.40;;;;;;;19.27;98.18;96616.06;5019384;28;20551;-61
2021/09/16 07:28:36;;;;;;;2.97;2.78;;;;;;;19.16;98.55;96619.94;5020287;28;20190;-61
2021/09/16 07:31:02;;;;;;;2.40;2.20;;;;;;;19.01;99.55;96626.19;5008361;28;20635;-60
2021/09/16 07:33:28;;;;;;;2.53;2.33;;;;;;;18.91;100.00;96622.88;5028045;28;20248;-61
2021/09/16 07:35:53;;;;;;;3.25;2.63;;;;;;;18.93;100.00;96632.16;5024672;28;20297;-61
2021/09/16 07:38:19;;;;;;;3.30;3.00;;;;;;;18.91;100.00;96638.81;5021314;28;20187;-61
2021/09/16 07:40:44;;;;;;;2.92;2.47;;;;;;;18.84;100.00;96633.03;5027424;28;20271;-62
2021/09/16 07:43:10;;;;;;;3.15;2.63;;;;;;;18.52;100.00;96637.06;5031877;28;20273;-62
2021/09/16 07:45:36;;;;;;;2.50;2.30;;;;;;;18.26;100.00;96631.19;5022954;28;20194;-63
2021/09/16 07:48:01;;;;;;;2.63;2.42;;;;;;;18.29;100.00;96640.44;5021455;28;20187;-63
2021/09/16 07:50:27;;;;;;;3.67;3.20;;;;;;;18.14;100.00;96649.34;5023195;28;20659;-63
2021/09/16 07:52:52;;;;;;;3.60;3.33;;;;;;;18.04;100.00;96648.63;5007377;28;20183;-63
2021/09/16 07:55:18;;;;;;;4.55;4.25;;;;;;;18.27;100.00;96647.91;5021292;28;20594;-64
2021/09/16 07:57:43;;;;;;;4.00;3.00;;;;;;;18.19;100.00;96657.25;5023569;28;20196;-63
2021/09/16 08:00:10;;;;;;;3.40;3.20;;;;;;;17.84;100.00;96657.50;5027409;28;20186;-64
2021/09/16 08:02:47;;;;;;;4.00;3.80;;;;;;;18.11;100.00;96662.38;5027221;28;20699;-63
2021/09/16 08:05:13;;;;;;;4.20;4.00;;;;;;;18.02;100.00;96656.84;5020901;28;20658;-63
2021/09/16 08:07:38;;;;;;;4.40;4.10;;;;;;;17.96;100.00;96659.81;5018893;28;20179;-63
2021/09/16 08:10:04;;;;;;;4.38;4.07;;;;;;;17.77;100.00;96670.31;5018843;28;20310;-63
2021/09/16 08:12:30;;;;;;;4.20;3.90;;;;;;;17.80;100.00;96672.41;5019448;28;20191;-63
2021/09/16 08:14:55;;;;;;;3.63;3.33;;;;;;;17.47;100.00;96668.56;5023517;28;20186;-63
2021/09/16 08:17:21;;;;;;;4.45;4.10;;;;;;;17.34;100.00;96672.59;5022517;28;20607;-63
2021/09/16 08:19:46;;;;;;;4.60;4.20;;;;;;;17.33;100.00;96671.00;5020384;28;20186;-63
2021/09/16 08:22:11;;;;;;;4.10;3.70;;;;;;;17.62;100.00;96673.03;5023111;28;20198;-64
2021/09/16 08:24:37;;;;;;;6.25;3.95;;;;;;;17.85;100.00;96672.34;5008026;28;20239;-64
2021/09/16 08:27:03;;;;;;;4.20;3.90;;;;;;;17.55;100.00;96678.63;5020544;28;20281;-64
2021/09/16 08:29:29;;;;;;;3.53;3.23;;;;;;;17.72;100.00;96684.34;5026295;28;20191;-64
2021/09/16 08:31:55;;;;;;;3.50;3.20;;;;;;;17.72;100.00;96684.34;5031428;28;20190;-64
2021/09/16 08:34:26;;;;;;;2.85;2.65;;;;;;;17.64;100.00;96689.47;5016813;28;20182;-64
2021/09/16 08:36:52;;;;;;;2.70;2.50;;;;;;;17.57;100.00;96687.06;5022636;28;20207;-64
2021/09/16 08:39:18;;;;;;;2.80;2.53;;;;;;;17.57;100.00;96694.22;5022119;28;20199;-63
2021/09/16 08:41:44;;;;;;;1.80;1.70;;;;;;;17.59;100.00;96692.09;5027301;28;20285;-63
2021/09/16 08:44:10;;;;;;;2.83;1.93;;;;;;;17.19;100.00;96698.38;5029751;28;20189;-63
2021/09/16 08:46:36;;;;;;;1.92;1.83;;;;;;;17.50;100.00;96691.88;5020448;28;20192;-63
2021/09/16 08:49:02;;;;;;;2.33;2.13;;;;;;;17.50;100.00;96693.75;5028399;28;20244;-66
2021/09/16 08:51:28;;;;;;;2.50;2.40;;;;;;;17.32;100.00;96703.09;5030775;28;20206;-63
2021/09/16 08:53:54;;;;;;;3.30;3.00;;;;;;;17.28;100.00;96704.69;5025861;28;20781;-63
2021/09/16 08:56:21;;;;;;;2.47;2.33;;;;;;;16.92;100.00;96707.47;5021087;28;20203;-63
2021/09/16 08:58:47;;;;;;;2.40;2.30;;;;;;;16.78;100.00;96710.91;5017972;28;20199;-63
2021/09/16 09:01:15;;;;;;;2.13;2.03;;;;;;;16.88;100.00;96702.97;5017859;28;20225;-62
2021/09/16 09:03:40;;;;;;;2.67;2.47;;;;;;;16.82;100.00;96717.28;5027335;28;20187;-62
2021/09/16 09:06:36;;;;;;;1.93;1.67;;;;;;;16.83;100.00;96706.41;5023376;28;20267;-66
2021/09/16 09:09:08;;;;;;;2.10;1.90;;;;;;;16.65;100.00;96712.28;5025861;28;20174;-65
2021/09/16 09:11:51;;;;;;;2.10;2.00;;;;;;;16.53;100.00;96715.16;5024909;28;20191;-64
2021/09/16 09:14:19;;;;;;;2.70;2.20;;;;;;;16.31;100.00;96717.28;5013078;28;20517;-63
2021/09/16 09:16:44;;;;;;;2.60;2.40;;;;;;;16.16;100.00;96730.50;5020573;28;20202;-63
2021/09/16 09:19:18;;;;;;;3.57;3.27;;;;;;;16.02;100.00;96722.28;5025787;28;20208;-63
2021/09/16 09:21:45;;;;;;;4.43;4.03;;;;;;;16.06;100.00;96722.53;5016315;28;20258;-63
2021/09/16 09:24:11;;;;;;;5.73;5.23;;;;;;;16.23;100.00;96721.22;5023597;28;20245;-63
2021/09/16 09:26:38;;;;;;;5.40;4.90;;;;;;;16.07;100.00;96724.13;5027277;28;20198;-65
2021/09/16 09:29:06;;;;;;;6.50;5.90;;;;;;;16.18;100.00;96736.31;5026730;28;20183;-63
2021/09/16 09:31:33;;;;;;;6.93;6.27;;;;;;;15.86;100.00;96730.44;5022317;28;20183;-62
2021/09/16 09:33:58;;;;;;;7.33;6.60;;;;;;;15.97;100.00;96740.78;5019977;28;20192;-62
2021/09/16 09:36:23;;;;;;;10.13;8.20;;;;;;;15.65;100.00;96737.53;5029825;28;20212;-63
2021/09/16 09:38:56;;;;;;;11.50;8.30;;;;;;;15.53;100.00;96732.47;5014746;28;20179;-62
2021/09/16 09:41:35;;;;;;;12.23;8.67;;;;;;;15.54;100.00;96728.78;5013047;28;20297;-62
2021/09/16 09:44:07;;;;;;;11.73;8.67;;;;;;;15.48;100.00;96737.69;5026195;28;20187;-63
2021/09/16 09:46:42;;;;;;;12.20;9.23;;;;;;;15.55;100.00;96732.22;5023703;28;20179;-63
2021/09/16 09:49:10;;;;;;;11.13;8.93;;;;;;;15.47;100.00;96741.38;5028649;28;20197;-62
2021/09/16 09:52:05;;;;;;;14.67;11.03;;;;;;;15.56;100.00;96741.69;5018668;28;20237;-62
2021/09/16 09:54:39;;;;;;;14.77;10.90;;;;;;;15.61;100.00;96741.72;5002086;28;20682;-62
2021/09/16 09:57:04;;;;;;;13.70;12.30;;;;;;;15.82;100.00;96737.31;5029497;28;20203;-62
2021/09/16 10:00:07;;;;;;;16.73;14.77;;;;;;;15.90;100.00;96742.06;5021158;28;20185;-62
2021/09/16 10:03:01;;;;;;;20.17;18.07;;;;;;;15.78;100.00;96737.81;5029840;28;20204;-62
2021/09/16 10:05:37;;;;;;;15.97;14.37;;;;;;;15.87;100.00;96732.03;5024310;28;20176;-62
2021/09/16 10:08:09;;;;;;;17.80;16.10;;;;;;;16.02;100.00;96732.84;5021589;28;20193;-62
2021/09/16 10:10:40;;;;;;;13.27;12.13;;;;;;;16.25;100.00;96733.41;5020483;28;20204;-63
2021/09/16 10:13:05;;;;;;;12.53;11.23;;;;;;;16.03;100.00;96739.72;5023820;28;20249;-62
2021/09/16 10:15:31;;;;;;;12.13;10.43;;;;;;;16.32;100.00;96732.09;5026750;28;20615;-62
2021/09/16 10:17:57;;;;;;;11.30;9.77;;;;;;;16.04;100.00;96733.38;5030177;28;20182;-62
2021/09/16 10:20:25;;;;;;;10.80;9.20;;;;;;;16.00;100.00;96742.09;5021324;28;20537;-62
2021/09/16 10:23:03;;;;;;;17.27;9.70;;;;;;;15.91;100.00;96741.03;5025041;28;20244;-62
2021/09/16 10:25:29;;;;;;;16.10;10.73;;;;;;;15.93;100.00;96750.28;5018057;28;20577;-62
2021/09/16 10:28:03;;;;;;;14.33;10.57;;;;;;;15.85;100.00;96747.34;5025452;28;20640;-62
2021/09/16 10:30:39;;;;;;;17.03;11.00;;;;;;;15.73;100.00;96740.44;5030737;28;20629;-62
2021/09/16 10:33:09;;;;;;;17.30;11.37;;;;;;;15.86;100.00;96743.66;5021903;28;20258;-62
2021/09/16 10:35:58;;;;;;;16.73;11.47;;;;;;;16.18;100.00;96734.47;5023197;28;20234;-62
2021/09/16 10:38:40;;;;;;;18.20;12.10;;;;;;;16.23;100.00;96746.88;5031511;28;20190;-62
2021/09/16 10:41:27;;;;;;;18.07;12.07;;;;;;;16.41;100.00;96740.28;5030100;28;20284;-62
2021/09/16 10:44:17;;;;;;;17.03;11.43;;;;;;;15.83;100.00;96742.31;5020656;28;20670;-62
2021/09/16 10:46:45;;;;;;;18.47;11.67;;;;;;;15.83;100.00;96734.38;5022316;28;20226;-62
2021/09/16 10:49:19;;;;;;;15.83;10.30;;;;;;;15.79;100.00;96742.03;5033199;28;20670;-62
2021/09/16 10:51:46;;;;;;;13.47;10.23;;;;;;;16.11;100.00;96749.78;5023186;28;20273;-62
2021/09/16 10:54:23;;;;;;;14.80;10.17;;;;;;;16.01;100.00;96751.59;5011440;28;20183;-61
2021/09/16 10:57:00;;;;;;;14.33;10.27;;;;;;;16.02;100.00;96758.50;5026787;28;20218;-62
2021/09/16 10:59:47;;;;;;;12.23;9.47;;;;;;;16.15;100.00;96756.16;5018541;28;20274;-62
2021/09/16 11:02:15;;;;;;;14.87;9.67;;;;;;;15.94;100.00;96759.00;5021001;28;20177;-62
2021/09/16 11:05:14;;;;;;;15.43;9.97;;;;;;;16.25;100.00;96760.66;5024124;28;20197;-62
2021/09/16 11:07:45;;;;;;;16.40;10.77;;;;;;;16.33;100.00;96762.75;5015898;28;20195;-62
2021/09/16 11:10:13;;;;;;;17.57;10.70;;;;;;;16.52;100.00;96760.41;5026169;28;20187;-62
2021/09/16 11:12:38;;;;;;;14.33;10.53;;;;;;;16.42;100.00;96773.63;5027471;28;20647;-62
2021/09/16 11:15:04;;;;;;;14.17;10.20;;;;;;;16.45;100.00;96760.66;5021481;28;20187;-62
2021/09/16 11:17:30;;;;;;;15.10;10.10;;;;;;;16.35;100.00;96770.44;5025208;28;20230;-62
2021/09/16 11:19:56;;;;;;;14.73;10.07;;;;;;;16.37;100.00;96765.69;5004663;28;20194;-62
2021/09/16 11:22:22;;;;;;;13.53;9.93;;;;;;;16.43;100.00;96760.16;5002050;28;20287;-62
2021/09/16 11:24:49;;;;;;;16.83;11.20;;;;;;;16.55;100.00;96771.25;5027085;28;20206;-62
2021/09/16 11:27:36;;;;;;;14.23;9.90;;;;;;;16.65;100.00;96773.16;5018278;28;20187;-62